Time;durP1;ratioP1;P1;durP2;ratioP2;P2;SDS_P1;SDS_P2;PMS_P1;PMS_P2;Temp;Humidity;BMP_temperature;BMP_pressure;BME280_temperature;BME280_humidity;BME280_pressure;Samples;Min_cycle;Max_cycle;Signal;HPM_P1;HPM_P2
2022/12/12 00:01:17;;;;;;;22.75;10.00;;;;;;;-11.84;84.07;93030.09;4990195;28;20046;-67
2022/12/12 00:03:43;;;;;;;25.38;10.40;;;;;;;-12.04;85.30;93026.84;4991004;28;20491;-68
2022/12/12 00:06:10;;;;;;;22.58;9.50;;;;;;;-11.95;86.36;93037.47;4990342;28;20438;-68
2022/12/12 00:08:37;;;;;;;26.73;9.45;;;;;;;-11.81;86.01;93029.50;4991191;28;20045;-68
2022/12/12 00:11:05;;;;;;;25.65;8.90;;;;;;;-11.81;85.24;93038.25;4990629;28;20054;-68
2022/12/12 00:13:33;;;;;;;25.00;9.73;;;;;;;-11.90;85.48;93037.38;4990671;28;20046;-68
2022/12/12 00:15:59;;;;;;;22.13;8.77;;;;;;;-11.92;85.67;93042.19;4991070;28;20038;-67
2022/12/12 00:18:26;;;;;;;21.10;9.10;;;;;;;-11.99;85.18;93042.59;4989727;28;21570;-68
2022/12/12 00:20:55;;;;;;;24.27;8.70;;;;;;;-11.93;85.03;93037.97;4990993;28;20048;-68
2022/12/12 00:23:24;;;;;;;20.77;8.77;;;;;;;-12.15;85.11;93030.75;4990077;28;20054;-68
2022/12/12 00:25:56;;;;;;;25.63;8.70;;;;;;;-12.08;84.64;93039.09;4990743;28;20406;-68
2022/12/12 00:28:23;;;;;;;22.20;8.90;;;;;;;-12.10;85.43;93039.38;4990025;28;20044;-68
2022/12/12 00:30:50;;;;;;;20.52;7.75;;;;;;;-11.90;84.55;93034.75;4990738;28;20054;-67
2022/12/12 00:33:16;;;;;;;20.98;8.05;;;;;;;-11.86;83.84;93036.47;4989990;28;20046;-67
2022/12/12 00:35:44;;;;;;;22.42;8.25;;;;;;;-11.92;84.06;93037.69;4990949;28;20054;-70
2022/12/12 00:38:11;;;;;;;21.30;7.47;;;;;;;-12.03;83.49;93032.91;4990018;28;20521;-67
2022/12/12 00:40:37;;;;;;;22.70;9.00;;;;;;;-12.01;83.64;93038.69;4990693;28;20348;-67
2022/12/12 00:43:04;;;;;;;19.92;8.60;;;;;;;-12.17;85.70;93038.19;4990395;28;20047;-67
2022/12/12 00:45:31;;;;;;;32.67;11.90;;;;;;;-12.06;85.32;93042.22;4990096;28;20042;-67
2022/12/12 00:47:57;;;;;;;28.67;9.85;;;;;;;-12.01;85.04;93034.19;4990714;28;20069;-67
2022/12/12 00:50:24;;;;;;;29.30;9.68;;;;;;;-11.94;84.38;93045.13;4989990;28;20042;-67
2022/12/12 00:52:51;;;;;;;25.40;9.05;;;;;;;-12.02;83.70;93039.75;4990480;28;20046;-67
2022/12/12 00:55:18;;;;;;;22.70;8.32;;;;;;;-11.97;84.08;93035.16;4989610;28;20470;-67
2022/12/12 00:57:44;;;;;;;25.90;8.77;;;;;;;-11.96;83.27;93031.41;4990721;28;20645;-68
2022/12/12 01:00:13;;;;;;;18.42;7.30;;;;;;;-11.99;83.23;93039.97;4990086;28;20058;-67
2022/12/12 01:02:40;;;;;;;19.63;7.80;;;;;;;-12.00;82.83;93045.53;4990422;28;20042;-67
2022/12/12 01:05:07;;;;;;;27.13;8.52;;;;;;;-12.03;82.96;93051.41;4989993;28;20050;-67
2022/12/12 01:07:34;;;;;;;18.15;6.93;;;;;;;-12.09;82.62;93045.44;4990170;28;20046;-67
2022/12/12 01:10:01;;;;;;;21.00;8.70;;;;;;;-12.08;81.95;93053.09;4990434;28;20044;-68
2022/12/12 01:12:27;;;;;;;20.63;8.13;;;;;;;-12.10;83.62;93049.19;4989317;28;20874;-68
2022/12/12 01:14:54;;;;;;;27.00;9.32;;;;;;;-12.26;83.21;93051.34;4989172;28;20046;-67
2022/12/12 01:17:21;;;;;;;25.38;9.13;;;;;;;-12.17;83.85;93051.41;4991827;28;20054;-68
2022/12/12 01:19:47;;;;;;;32.45;8.63;;;;;;;-12.21;84.18;93056.53;4994164;28;20414;-67
2022/12/12 01:22:14;;;;;;;20.45;8.32;;;;;;;-12.23;83.98;93045.47;4993422;28;20042;-67
2022/12/12 01:24:41;;;;;;;25.55;8.45;;;;;;;-12.25;84.49;93055.56;4993850;28;20606;-67
2022/12/12 01:27:08;;;;;;;24.77;8.60;;;;;;;-12.21;83.48;93055.75;4993612;28;20038;-67
2022/12/12 01:29:35;;;;;;;21.08;8.43;;;;;;;-12.20;83.35;93050.16;4993730;28;20403;-68
2022/12/12 01:32:01;;;;;;;22.65;9.02;;;;;;;-12.16;83.65;93053.00;4993341;28;20054;-65
2022/12/12 01:34:28;;;;;;;27.00;9.07;;;;;;;-12.19;82.61;93051.75;4993550;28;20518;-67
2022/12/12 01:36:55;;;;;;;25.27;8.48;;;;;;;-12.28;83.35;93056.91;4993748;28;20052;-67
2022/12/12 01:39:21;;;;;;;26.52;9.50;;;;;;;-12.32;82.59;93063.09;4993080;28;20054;-67
2022/12/12 01:41:48;;;;;;;20.40;7.82;;;;;;;-12.27;83.06;93065.66;4993681;28;20039;-67
2022/12/12 01:44:41;;;;;;;25.17;8.60;;;;;;;-12.28;83.03;93061.44;4993245;28;20050;-67
2022/12/12 01:47:10;;;;;;;24.73;9.10;;;;;;;-12.56;83.20;93069.34;5010523;28;20038;-67
2022/12/12 01:49:37;;;;;;;25.73;9.57;;;;;;;-12.62;83.48;93064.44;4994357;28;20050;-67
2022/12/12 01:52:09;;;;;;;23.80;9.63;;;;;;;-12.71;84.39;93067.00;4993696;28;20061;-67
2022/12/12 01:54:41;;;;;;;31.50;10.63;;;;;;;-12.56;84.73;93076.50;4993442;28;20057;-69
2022/12/12 01:57:13;;;;;;;26.23;9.25;;;;;;;-12.54;83.95;93074.34;4993225;28;20053;-67
2022/12/12 01:59:42;;;;;;;24.30;8.63;;;;;;;-12.72;84.73;93076.75;4975895;28;20052;-69
2022/12/12 02:02:09;;;;;;;19.25;7.90;;;;;;;-12.80;84.61;93069.50;4991295;28;20412;-67
2022/12/12 02:04:36;;;;;;;21.98;7.93;;;;;;;-12.70;84.22;93071.19;4992971;28;20050;-67
2022/12/12 02:07:03;;;;;;;25.70;8.23;;;;;;;-12.56;84.16;93079.91;4992811;28;20038;-67
2022/12/12 02:09:32;;;;;;;20.20;7.68;;;;;;;-12.52;83.20;93080.13;4993086;28;20034;-67
2022/12/12 02:11:59;;;;;;;19.35;7.88;;;;;;;-12.56;83.01;93077.28;4992190;28;20042;-67
2022/12/12 02:14:33;;;;;;;29.20;7.68;;;;;;;-12.55;82.89;93081.50;4992603;28;20050;-67
2022/12/12 02:17:26;;;;;;;21.83;8.30;;;;;;;-12.58;82.40;93086.56;4993159;28;20050;-67
2022/12/12 02:19:56;;;;;;;20.85;8.05;;;;;;;-12.64;82.29;93085.09;4992313;28;21749;-67
2022/12/12 02:22:41;;;;;;;25.92;8.85;;;;;;;-12.59;82.72;93090.31;4992202;28;20046;-67
2022/12/12 02:25:14;;;;;;;28.60;8.50;;;;;;;-12.64;82.79;93093.03;4991295;28;20072;-68
2022/12/12 02:27:43;;;;;;;19.30;8.65;;;;;;;-12.76;83.02;93088.19;5006631;28;20039;-67
2022/12/12 02:30:17;;;;;;;17.40;6.43;;;;;;;-12.76;81.98;93093.50;4992249;28;20034;-67
2022/12/12 02:32:59;;;;;;;16.83;5.63;;;;;;;-12.75;82.24;93087.91;4992905;28;20402;-67
2022/12/12 02:35:34;;;;;;;21.40;7.13;;;;;;;-12.72;81.47;93097.13;4992017;28;20043;-67
2022/12/12 02:38:08;;;;;;;21.38;8.27;;;;;;;-12.76;82.18;93083.69;4992862;28;20462;-68
2022/12/12 02:40:34;;;;;;;18.17;6.75;;;;;;;-12.79;81.56;93094.84;4991833;28;20497;-68
2022/12/12 02:43:16;;;;;;;18.30;6.63;;;;;;;-12.77;81.79;93089.28;4992851;28;20040;-67
2022/12/12 02:46:11;;;;;;;17.77;6.35;;;;;;;-12.91;82.20;93090.03;4991374;28;20041;-67
2022/12/12 02:48:49;;;;;;;17.90;6.25;;;;;;;-12.93;81.20;93094.81;4991416;28;20209;-67
2022/12/12 02:51:18;;;;;;;18.48;5.82;;;;;;;-12.90;80.79;93086.31;4992175;28;20058;-67
2022/12/12 02:53:45;;;;;;;15.70;5.88;;;;;;;-13.10;80.49;93092.72;4992457;28;20047;-67
2022/12/12 02:56:49;;;;;;;17.15;5.90;;;;;;;-13.18;81.74;93096.00;4991922;28;20422;-67
2022/12/12 02:59:23;;;;;;;15.32;6.20;;;;;;;-13.03;81.67;93089.72;4991920;28;20061;-67
2022/12/12 03:01:57;;;;;;;20.60;6.90;;;;;;;-13.16;82.47;93091.22;4991941;28;20143;-67
2022/12/12 03:07:46;;;;;;;17.42;6.32;;;;;;;-13.04;81.77;93088.13;4991913;28;20054;-67
2022/12/12 03:10:43;;;;;;;22.73;6.60;;;;;;;-12.98;81.77;93084.31;4991798;28;20046;-67
2022/12/12 03:13:47;;;;;;;19.15;6.68;;;;;;;-12.98;81.07;93078.28;4990807;28;20045;-67
2022/12/12 03:16:33;;;;;;;19.80;7.22;;;;;;;-13.14;81.33;93081.16;4991476;28;20046;-67
2022/12/12 03:19:19;;;;;;;32.42;8.45;;;;;;;-13.22;81.74;93079.16;4992058;28;20188;-67
2022/12/12 03:21:59;;;;;;;39.15;9.82;;;;;;;-13.10;81.73;93086.66;4991061;28;20045;-67
2022/12/12 03:24:52;;;;;;;39.05;10.77;;;;;;;-13.11;81.12;93079.81;4988490;28;20050;-67
2022/12/12 03:27:46;;;;;;;28.88;10.15;;;;;;;-13.13;82.11;93082.72;4967639;28;20047;-67
2022/12/12 03:30:16;;;;;;;36.70;10.85;;;;;;;-13.18;81.82;93084.66;4971567;28;20058;-68
2022/12/12 03:32:48;;;;;;;25.23;9.20;;;;;;;-13.33;82.93;93083.09;4972021;28;20038;-67
2022/12/12 03:35:21;;;;;;;24.50;8.95;;;;;;;-13.39;82.95;93079.72;4971969;28;20290;-67
2022/12/12 03:37:57;;;;;;;28.38;8.68;;;;;;;-13.32;83.55;93080.16;4972394;28;20043;-67
2022/12/12 03:40:32;;;;;;;25.95;9.27;;;;;;;-13.27;82.27;93079.25;4971189;28;20054;-67
2022/12/12 03:43:01;;;;;;;26.92;9.10;;;;;;;-13.23;82.39;93076.84;4972220;28;20051;-67
2022/12/12 03:45:43;;;;;;;43.67;12.52;;;;;;;-13.21;82.13;93078.13;4970594;28;20281;-67
2022/12/12 03:48:42;;;;;;;39.03;10.40;;;;;;;-13.33;82.50;93086.50;4971540;28;20061;-67
2022/12/12 03:51:20;;;;;;;33.65;11.23;;;;;;;-13.35;82.25;93082.59;4971213;28;20105;-67
2022/12/12 03:54:06;;;;;;;29.98;10.65;;;;;;;-13.27;82.16;93087.19;4971937;28;20069;-67
2022/12/12 03:56:43;;;;;;;22.20;8.80;;;;;;;-13.33;81.77;93086.50;4982063;28;20140;-67
2022/12/12 03:59:25;;;;;;;28.42;10.23;;;;;;;-13.36;81.39;93088.94;4990835;28;20045;-67
2022/12/12 04:02:02;;;;;;;33.63;12.52;;;;;;;-13.44;81.54;93090.34;4990978;28;20049;-67
2022/12/12 04:04:39;;;;;;;25.65;9.77;;;;;;;-13.47;82.46;93093.56;4989830;28;20770;-67
2022/12/12 04:07:14;;;;;;;27.00;9.27;;;;;;;-13.42;81.94;93092.72;4990557;28;20408;-67
2022/12/12 04:12:59;;;;;;;32.72;10.73;;;;;;;-13.54;81.85;93093.94;4989774;28;20627;-67
2022/12/12 04:15:47;;;;;;;27.52;9.00;;;;;;;-13.49;82.09;93091.22;4989185;28;20052;-67
2022/12/12 04:18:13;;;;;;;25.50;10.13;;;;;;;-13.53;82.37;93100.78;4990495;28;20466;-67
2022/12/12 04:23:58;;;;;;;23.52;9.57;;;;;;;-13.44;81.63;93098.28;4989877;28;20809;-67
2022/12/12 04:26:41;;;;;;;19.20;8.48;;;;;;;-13.56;82.03;93097.91;4989975;28;20042;-67
2022/12/12 04:29:39;;;;;;;19.80;7.07;;;;;;;-13.47;81.25;93107.56;4990551;28;20453;-66
2022/12/12 04:32:27;;;;;;;20.40;6.60;;;;;;;-13.51;82.60;93100.50;4990354;28;20039;-67
2022/12/12 04:35:04;;;;;;;22.73;7.22;;;;;;;-13.48;82.38;93113.91;4990672;28;20050;-67
2022/12/12 04:37:37;;;;;;;22.30;7.93;;;;;;;-13.52;81.55;93105.00;4989537;28;20740;-67
2022/12/12 04:40:08;;;;;;;23.55;8.15;;;;;;;-13.59;82.07;93104.56;4990402;28;20511;-66
2022/12/12 04:42:40;;;;;;;23.48;7.68;;;;;;;-13.57;82.12;93105.06;4990318;28;20445;-67
2022/12/12 04:45:14;;;;;;;30.40;8.65;;;;;;;-13.55;81.88;93115.34;4990008;28;20042;-67
2022/12/12 04:47:45;;;;;;;25.60;8.18;;;;;;;-13.54;81.48;93112.41;4990220;28;20491;-67
2022/12/12 04:50:13;;;;;;;22.40;8.45;;;;;;;-13.62;81.53;93120.97;4990251;28;20050;-66
2022/12/12 04:52:42;;;;;;;21.02;7.78;;;;;;;-13.60;81.70;93120.66;4992094;28;20060;-67
2022/12/12 04:55:14;;;;;;;25.58;8.65;;;;;;;-13.77;82.37;93121.94;4994133;28;20042;-67
2022/12/12 04:57:47;;;;;;;26.30;8.07;;;;;;;-13.70;81.84;93122.41;4994279;28;20050;-67
2022/12/12 05:00:14;;;;;;;20.75;8.02;;;;;;;-13.87;82.28;93130.78;5009129;28;20092;-67
2022/12/12 05:02:50;;;;;;;25.05;8.82;;;;;;;-13.84;81.93;93132.06;4994198;28;20034;-67
2022/12/12 05:05:25;;;;;;;26.88;8.77;;;;;;;-13.80;81.77;93132.28;5008703;28;20058;-67
2022/12/12 05:07:59;;;;;;;29.80;10.40;;;;;;;-14.00;81.69;93133.31;4994353;28;20039;-67
2022/12/12 05:10:26;;;;;;;25.58;8.80;;;;;;;-14.14;82.14;93128.72;4994236;28;20453;-66
2022/12/12 05:12:57;;;;;;;19.75;7.80;;;;;;;-14.03;82.18;93139.16;4994443;28;20056;-67
2022/12/12 05:15:26;;;;;;;31.85;10.77;;;;;;;-14.00;82.28;93134.13;4994041;28;20042;-66
2022/12/12 05:18:06;;;;;;;25.20;8.45;;;;;;;-13.91;82.01;93139.53;4993119;28;20039;-67
2022/12/12 05:20:33;;;;;;;21.73;8.00;;;;;;;-14.00;82.55;93142.03;4993166;28;20058;-67
2022/12/12 05:23:00;;;;;;;17.73;7.43;;;;;;;-13.90;82.84;93139.25;4994316;28;20038;-69
2022/12/12 05:25:26;;;;;;;21.73;7.40;;;;;;;-13.88;82.93;93139.75;4993595;28;20064;-67
2022/12/12 05:27:53;;;;;;;18.80;6.88;;;;;;;-13.86;82.90;93144.75;4994165;28;20053;-68
2022/12/12 05:30:20;;;;;;;30.52;8.80;;;;;;;-13.98;82.64;93147.78;4993271;28;20055;-68
2022/12/12 05:32:47;;;;;;;22.38;8.32;;;;;;;-13.97;83.27;93152.00;4993659;28;20258;-68
2022/12/12 05:35:14;;;;;;;33.30;9.25;;;;;;;-14.12;83.55;93142.41;5008481;28;20072;-68
2022/12/12 05:37:42;;;;;;;32.05;9.48;;;;;;;-13.94;83.48;93142.72;4993647;28;20096;-68
2022/12/12 05:40:17;;;;;;;28.40;9.23;;;;;;;-14.01;83.18;93145.72;4993579;28;20042;-68
2022/12/12 05:42:44;;;;;;;27.15;8.98;;;;;;;-13.92;83.13;93146.66;4993680;28;20143;-68
2022/12/12 05:45:11;;;;;;;30.75;10.77;;;;;;;-13.85;83.00;93148.19;4993054;28;20046;-66
2022/12/12 05:47:38;;;;;;;62.38;20.92;;;;;;;-13.89;82.99;93140.03;4993029;28;20116;-66
2022/12/12 05:50:05;;;;;;;39.00;9.95;;;;;;;-13.91;82.18;93152.72;4993137;28;20050;-66
2022/12/12 05:52:32;;;;;;;21.50;9.18;;;;;;;-13.97;82.37;93154.63;4993240;28;20039;-67
2022/12/12 05:54:58;;;;;;;30.40;10.15;;;;;;;-14.03;81.99;93153.13;4993600;28;20449;-68
2022/12/12 05:57:25;;;;;;;29.95;8.15;;;;;;;-14.00;82.73;93149.94;4991875;28;20070;-68
2022/12/12 05:59:52;;;;;;;26.67;9.23;;;;;;;-13.97;82.54;93159.13;4993111;28;20043;-69
2022/12/12 06:02:19;;;;;;;26.80;8.00;;;;;;;-13.99;82.50;93162.03;4989793;28;20399;-68
2022/12/12 06:04:46;;;;;;;23.52;8.60;;;;;;;-14.03;82.97;93162.88;4995736;28;20046;-69
2022/12/12 06:07:12;;;;;;;27.10;9.00;;;;;;;-14.00;82.08;93163.13;4998925;28;20107;-68
2022/12/12 06:09:39;;;;;;;26.98;7.70;;;;;;;-13.93;82.62;93170.69;5006344;28;20045;-68
2022/12/12 06:12:06;;;;;;;19.73;7.82;;;;;;;-13.92;82.17;93172.22;5002702;28;20115;-65
2022/12/12 06:14:32;;;;;;;28.65;9.27;;;;;;;-13.92;82.19;93172.22;4996304;28;20050;-67
2022/12/12 06:16:59;;;;;;;25.45;8.60;;;;;;;-13.92;82.97;93169.59;4994505;28;20050;-66
2022/12/12 06:19:26;;;;;;;18.27;6.57;;;;;;;-13.90;82.07;93170.13;4993511;28;20046;-65
2022/12/12 06:21:53;;;;;;;15.68;6.57;;;;;;;-13.90;81.66;93178.03;4991955;28;20281;-66
2022/12/12 06:24:19;;;;;;;16.83;6.85;;;;;;;-13.97;81.71;93174.94;4991910;28;20522;-67
2022/12/12 06:26:46;;;;;;;19.15;7.75;;;;;;;-14.00;82.00;93176.28;4996157;28;20049;-68
2022/12/12 06:29:13;;;;;;;27.50;8.88;;;;;;;-14.24;82.77;93170.22;5011767;28;20052;-68
2022/12/12 06:31:40;;;;;;;23.42;8.50;;;;;;;-14.14;83.04;93178.81;5011624;28;20042;-67
2022/12/12 06:34:07;;;;;;;22.63;8.00;;;;;;;-14.18;82.49;93174.38;5011588;28;20033;-67
2022/12/12 06:36:34;;;;;;;22.60;7.50;;;;;;;-14.27;82.44;93182.88;4998049;28;20054;-68
2022/12/12 06:39:00;;;;;;;18.20;7.95;;;;;;;-14.20;82.80;93174.66;5012026;28;20042;-66
2022/12/12 06:41:29;;;;;;;20.85;7.75;;;;;;;-14.09;82.53;93177.97;5011061;28;20438;-66
2022/12/12 06:43:56;;;;;;;21.60;7.78;;;;;;;-14.05;82.34;93170.28;4984380;28;20284;-68
2022/12/12 06:46:25;;;;;;;20.17;7.43;;;;;;;-13.99;82.17;93175.22;5011166;28;20050;-67
2022/12/12 06:48:54;;;;;;;24.42;9.10;;;;;;;-14.01;82.25;93177.34;5011563;28;20394;-68
2022/12/12 06:51:35;;;;;;;23.50;8.02;;;;;;;-13.94;82.43;93171.72;5011369;28;20407;-67
2022/12/12 06:54:03;;;;;;;23.33;8.20;;;;;;;-14.01;82.23;93173.94;5011799;28;20038;-68
2022/12/12 06:56:30;;;;;;;22.38;7.60;;;;;;;-14.05;83.28;93167.66;5006671;28;20905;-67
2022/12/12 06:58:58;;;;;;;21.58;7.88;;;;;;;-13.99;83.20;93174.44;5011408;28;20107;-67
2022/12/12 07:01:25;;;;;;;29.05;8.68;;;;;;;-13.97;83.09;93175.72;5010820;28;20367;-66
2022/12/12 07:03:52;;;;;;;23.10;8.80;;;;;;;-13.96;82.54;93184.41;5011436;28;20417;-67
2022/12/12 07:06:21;;;;;;;23.42;9.10;;;;;;;-13.88;82.65;93192.50;4997189;28;20103;-68
2022/12/12 07:08:48;;;;;;;24.67;8.55;;;;;;;-13.85;82.11;93196.41;4997699;28;20045;-67
2022/12/12 07:11:22;;;;;;;21.50;8.07;;;;;;;-13.87;82.50;93199.34;4992357;28;20056;-66
2022/12/12 07:13:50;;;;;;;19.17;7.85;;;;;;;-13.84;82.05;93202.47;4996863;28;20038;-67
2022/12/12 07:16:17;;;;;;;19.77;7.25;;;;;;;-13.77;81.69;93201.06;5007453;28;20050;-66
2022/12/12 07:18:45;;;;;;;22.25;8.10;;;;;;;-13.67;81.36;93202.81;5001120;28;20099;-67
2022/12/12 07:21:15;;;;;;;21.10;7.90;;;;;;;-13.64;81.60;93206.72;5010763;28;20384;-66
2022/12/12 07:23:42;;;;;;;18.27;7.70;;;;;;;-13.59;81.33;93206.69;5004342;28;20046;-66
2022/12/12 07:26:13;;;;;;;22.25;7.80;;;;;;;-13.72;80.92;93208.94;4990950;28;20038;-67
2022/12/12 07:28:40;;;;;;;23.00;8.10;;;;;;;-13.68;80.54;93202.03;5006363;28;20052;-68
2022/12/12 07:31:10;;;;;;;21.80;7.82;;;;;;;-13.69;80.84;93208.38;5003324;28;20053;-67
2022/12/12 07:33:37;;;;;;;25.17;9.05;;;;;;;-13.60;81.80;93210.38;5010711;28;20041;-67
2022/12/12 07:36:09;;;;;;;28.13;9.52;;;;;;;-13.52;81.81;93209.75;5010653;28;20046;-66
2022/12/12 07:38:36;;;;;;;27.02;9.48;;;;;;;-13.49;81.68;93201.28;5010318;28;20042;-67
2022/12/12 07:41:06;;;;;;;25.52;8.88;;;;;;;-13.31;82.42;93205.78;5010491;28;20042;-65
2022/12/12 07:43:40;;;;;;;24.17;9.88;;;;;;;-13.37;83.25;93206.13;4997145;28;20058;-67
2022/12/12 07:46:13;;;;;;;24.45;9.52;;;;;;;-13.27;83.05;93204.09;5010332;28;20054;-66
2022/12/12 07:48:40;;;;;;;28.58;9.57;;;;;;;-13.22;82.99;93199.84;5007449;28;20052;-66
2022/12/12 07:51:08;;;;;;;29.33;9.23;;;;;;;-12.98;82.44;93211.09;5000090;28;20610;-68
2022/12/12 07:53:35;;;;;;;27.42;9.68;;;;;;;-12.95;81.56;93207.13;5010425;28;20038;-68
2022/12/12 07:56:06;;;;;;;24.83;9.45;;;;;;;-12.94;82.07;93214.75;5008724;28;20052;-67
2022/12/12 07:58:33;;;;;;;36.03;10.05;;;;;;;-12.56;81.34;93221.84;5010067;28;21612;-67
2022/12/12 08:01:06;;;;;;;40.97;14.73;;;;;;;-12.29;80.54;93215.88;5007382;28;20046;-67
2022/12/12 08:03:40;;;;;;;37.30;12.65;;;;;;;-12.16;79.17;93220.38;4999668;28;20064;-67
2022/12/12 08:06:07;;;;;;;39.53;14.98;;;;;;;-12.32;79.02;93221.72;5008712;28;20041;-66
2022/12/12 08:08:34;;;;;;;31.98;13.25;;;;;;;-11.14;78.76;93222.94;4998678;28;20115;-67
2022/12/12 08:11:07;;;;;;;31.08;11.55;;;;;;;-11.22;76.50;93225.50;4990594;28;20050;-67
2022/12/12 08:13:37;;;;;;;34.20;12.02;;;;;;;-11.12;76.95;93231.38;4993649;28;20617;-67
2022/12/12 08:16:10;;;;;;;33.15;11.82;;;;;;;-11.22;78.76;93234.22;4990516;28;20045;-67
2022/12/12 08:18:37;;;;;;;36.75;13.60;;;;;;;-10.85;77.93;93232.38;4993304;28;20042;-67
2022/12/12 08:21:10;;;;;;;39.05;12.88;;;;;;;-10.60;77.21;93240.84;5010092;28;20111;-66
2022/12/12 08:23:38;;;;;;;35.08;11.63;;;;;;;-9.55;76.39;93239.59;5009949;28;20052;-67
2022/12/12 08:26:11;;;;;;;35.45;11.85;;;;;;;-10.15;75.38;93243.50;4993955;28;20046;-68
2022/12/12 08:28:40;;;;;;;34.80;11.48;;;;;;;-9.83;74.79;93244.31;5004717;28;20054;-67
2022/12/12 08:31:07;;;;;;;30.20;11.10;;;;;;;-9.79;75.46;93239.97;5009588;28;20046;-68
2022/12/12 08:33:34;;;;;;;39.40;12.65;;;;;;;-10.20;76.17;93246.25;5010186;28;20072;-68
2022/12/12 08:36:13;;;;;;;33.55;12.18;;;;;;;-9.85;76.55;93236.63;5006966;28;20055;-67
2022/12/12 08:38:41;;;;;;;52.90;16.58;;;;;;;-9.23;74.89;93241.13;5004517;28;20831;-67
2022/12/12 08:41:08;;;;;;;54.25;15.32;;;;;;;-8.72;73.99;93246.84;5005117;28;20419;-68
2022/12/12 08:43:37;;;;;;;58.70;16.70;;;;;;;-8.07;72.50;93229.13;4999044;28;20061;-66
2022/12/12 08:46:05;;;;;;;43.03;13.88;;;;;;;-7.74;70.75;93231.28;5007036;28;20064;-66
2022/12/12 08:48:33;;;;;;;57.60;16.90;;;;;;;-8.16;70.49;93239.78;5009917;28;20541;-67
2022/12/12 08:50:59;;;;;;;44.28;15.35;;;;;;;-8.13;71.25;93252.47;5009864;28;20058;-67
2022/12/12 08:53:26;;;;;;;46.30;14.43;;;;;;;-8.53;71.55;93254.53;5009472;28;20418;-67
2022/12/12 08:55:53;;;;;;;51.15;16.02;;;;;;;-9.00;73.46;93256.97;5018543;28;20038;-67
2022/12/12 08:58:20;;;;;;;42.97;15.60;;;;;;;-8.91;74.26;93257.78;5005416;28;20049;-66
2022/12/12 09:00:47;;;;;;;41.88;15.52;;;;;;;-9.04;74.18;93249.59;5009385;28;20046;-67
2022/12/12 09:03:13;;;;;;;43.30;16.05;;;;;;;-9.15;74.99;93260.84;5009865;28;20450;-67
2022/12/12 09:05:44;;;;;;;42.80;15.30;;;;;;;-9.05;75.01;93261.34;5005362;28;20043;-67
2022/12/12 09:08:12;;;;;;;39.42;14.75;;;;;;;-9.02;75.63;93265.25;4989313;28;20076;-67
2022/12/12 09:10:40;;;;;;;39.42;14.57;;;;;;;-8.89;76.86;93271.56;4990351;28;20043;-67
2022/12/12 09:13:08;;;;;;;42.95;15.02;;;;;;;-8.81;77.79;93270.78;4993380;28;20509;-66
2022/12/12 09:15:36;;;;;;;42.45;15.10;;;;;;;-8.79;79.23;93268.59;5009488;28;20091;-67
2022/12/12 09:18:03;;;;;;;40.42;13.85;;;;;;;-8.47;80.28;93271.91;4995363;28;20048;-66
2022/12/12 09:20:30;;;;;;;38.42;13.18;;;;;;;-8.34;81.36;93270.16;5008384;28;20042;-68
2022/12/12 09:22:56;;;;;;;35.33;10.85;;;;;;;-8.23;82.93;93274.06;5006113;28;20094;-69
2022/12/12 09:25:23;;;;;;;35.78;10.77;;;;;;;-8.16;84.29;93274.41;4989507;28;20064;-67
2022/12/12 09:27:50;;;;;;;29.15;9.77;;;;;;;-7.94;86.27;93281.44;5004808;28;20050;-67
2022/12/12 09:30:17;;;;;;;26.88;9.60;;;;;;;-7.61;86.49;93277.47;5009145;28;20092;-67
2022/12/12 09:32:44;;;;;;;29.88;10.07;;;;;;;-7.74;87.45;93280.00;5009653;28;20396;-68
2022/12/12 09:35:11;;;;;;;27.75;8.13;;;;;;;-7.75;88.72;93273.09;5009472;28;20100;-67
2022/12/12 09:37:38;;;;;;;28.17;8.77;;;;;;;-7.53;89.16;93271.31;5010772;28;20445;-67
2022/12/12 09:40:05;;;;;;;30.00;9.77;;;;;;;-7.41;88.08;93270.66;5012661;28;20113;-67
2022/12/12 09:42:34;;;;;;;23.75;7.75;;;;;;;-7.34;87.40;93274.41;5003067;28;20096;-67
2022/12/12 09:45:05;;;;;;;29.95;9.77;;;;;;;-7.48;88.54;93281.81;5009197;28;20052;-67
2022/12/12 09:47:40;;;;;;;21.80;7.05;;;;;;;-7.44;88.21;93288.09;5012138;28;20406;-66
2022/12/12 09:50:21;;;;;;;24.55;7.97;;;;;;;-7.46;89.16;93283.06;5011260;28;20048;-66
2022/12/12 09:52:49;;;;;;;24.45;8.40;;;;;;;-7.13;87.67;93284.38;5012881;28;20053;-66
2022/12/12 09:55:36;;;;;;;30.10;10.40;;;;;;;-7.39;88.10;93271.91;5011124;28;20054;-66
2022/12/12 09:58:13;;;;;;;30.52;10.38;;;;;;;-7.09;87.17;93280.72;4987215;28;20883;-66
2022/12/12 10:00:47;;;;;;;31.50;10.48;;;;;;;-7.18;86.34;93280.00;5012338;28;20414;-67
2022/12/12 10:03:56;;;;;;;29.80;10.00;;;;;;;-7.05;85.71;93276.31;5006688;28;20045;-67
2022/12/12 10:06:25;;;;;;;23.05;8.70;;;;;;;-6.89;85.21;93267.78;5010192;28;20076;-67
2022/12/12 10:09:31;;;;;;;25.08;9.43;;;;;;;-6.63;85.26;93268.41;5012132;28;20042;-67
2022/12/12 10:12:01;;;;;;;21.15;8.00;;;;;;;-6.41;84.49;93266.56;5006881;28;20050;-68
2022/12/12 10:14:41;;;;;;;25.95;8.40;;;;;;;-6.17;83.60;93257.91;5003700;28;20704;-67
2022/12/12 10:17:19;;;;;;;21.55;8.32;;;;;;;-5.76;82.39;93244.78;4998646;28;20050;-67
2022/12/12 10:19:54;;;;;;;25.67;9.32;;;;;;;-5.73;82.54;93250.25;5007874;28;20046;-67
2022/12/12 10:22:33;;;;;;;25.35;10.55;;;;;;;-5.37;80.57;93248.00;5021281;28;20042;-67
2022/12/12 10:25:29;;;;;;;24.77;8.88;;;;;;;-5.00;79.48;93248.84;5003955;28;20056;-67
2022/12/12 10:28:12;;;;;;;27.13;9.75;;;;;;;-5.38;80.54;93249.13;5006356;28;21666;-67
2022/12/12 10:31:14;;;;;;;25.08;9.05;;;;;;;-5.22;80.17;93245.47;5004769;28;21744;-67
2022/12/12 10:33:53;;;;;;;19.27;8.00;;;;;;;-5.71;80.86;93245.38;5009995;28;20406;-67
2022/12/12 10:36:57;;;;;;;21.85;7.40;;;;;;;-5.11;78.78;93243.16;5011597;28;20046;-67
2022/12/12 10:39:42;;;;;;;20.30;8.98;;;;;;;-4.86;78.90;93245.84;5011735;28;20046;-67
2022/12/12 10:42:33;;;;;;;21.38;8.15;;;;;;;-4.93;77.29;93238.38;4996123;28;20398;-67
2022/12/12 10:45:37;;;;;;;22.95;8.27;;;;;;;-4.50;77.24;93245.03;4994261;28;20101;-67
2022/12/12 10:48:05;;;;;;;23.80;8.77;;;;;;;-4.88;76.67;93245.38;4979271;28;20073;-67
2022/12/12 10:50:35;;;;;;;21.80;7.97;;;;;;;-4.93;75.92;93248.28;4999441;28;20046;-67
2022/12/12 10:53:06;;;;;;;20.40;8.00;;;;;;;-4.79;76.92;93248.72;5004264;28;20511;-64
2022/12/12 10:56:06;;;;;;;23.75;8.45;;;;;;;-4.62;76.09;93253.06;4995862;28;20488;-66
2022/12/12 10:58:42;;;;;;;22.13;8.60;;;;;;;-4.53;75.16;93259.06;5008589;28;20467;-66
2022/12/12 11:01:18;;;;;;;23.92;9.77;;;;;;;-5.04;76.58;93254.06;5000592;28;20054;-66
2022/12/12 11:04:04;;;;;;;25.17;9.68;;;;;;;-5.11;77.42;93250.38;5010885;28;20048;-66
2022/12/12 11:06:37;;;;;;;23.95;8.95;;;;;;;-4.92;76.39;93253.28;5011483;28;20038;-66
2022/12/12 11:09:21;;;;;;;23.95;9.00;;;;;;;-5.27;77.96;93243.03;5010475;28;20046;-66
2022/12/12 11:12:09;;;;;;;23.42;9.00;;;;;;;-4.86;76.56;93246.59;5011114;28;20041;-67
2022/12/12 11:14:47;;;;;;;22.75;9.18;;;;;;;-5.35;78.15;93253.78;5010667;28;20037;-67
2022/12/12 11:17:19;;;;;;;19.45;7.70;;;;;;;-4.28;75.71;93248.34;4997045;28;20499;-67
2022/12/12 11:19:46;;;;;;;22.52;8.15;;;;;;;-4.46;75.36;93245.13;5011820;28;20380;-67
2022/12/12 11:22:14;;;;;;;24.15;9.57;;;;;;;-4.53;74.51;93239.56;5010821;28;20050;-67
2022/12/12 11:24:46;;;;;;;24.98;9.52;;;;;;;-4.23;74.81;93226.66;5006760;28;20038;-67
2022/12/12 11:27:30;;;;;;;20.52;8.77;;;;;;;-3.96;73.52;93227.00;5006160;28;20042;-67
2022/12/12 11:30:00;;;;;;;20.40;8.93;;;;;;;-3.96;73.17;93227.00;5006553;28;20046;-67
2022/12/12 11:32:36;;;;;;;23.45;9.35;;;;;;;-3.74;73.07;93218.44;5001819;28;20487;-67
2022/12/12 11:35:19;;;;;;;24.15;10.32;;;;;;;-3.83;72.71;93221.25;4995436;28;20046;-66
2022/12/12 11:37:50;;;;;;;25.13;10.52;;;;;;;-3.65;72.60;93224.44;5011268;28;20045;-67
2022/12/12 11:40:29;;;;;;;27.23;9.90;;;;;;;-3.52;71.05;93230.53;5010426;28;20100;-67
2022/12/12 11:43:21;;;;;;;29.23;10.85;;;;;;;-3.23;70.85;93233.94;4990007;28;20056;-68
2022/12/12 11:46:09;;;;;;;23.98;9.85;;;;;;;-2.72;68.53;93222.50;4993847;28;20050;-67
2022/12/12 11:48:38;;;;;;;22.13;9.32;;;;;;;-2.63;67.91;93223.88;4990592;28;20042;-67
2022/12/12 11:51:05;;;;;;;25.58;10.63;;;;;;;-3.31;69.67;93218.78;4997713;28;20065;-67